sensor_id;sensor_type;location;lat;lon;timestamp;P1;P2;P0
68713;PMS7003;55690;51.566;19.198;2022-08-24T00:03:30;12;12;9
68713;PMS7003;55690;51.566;19.198;2022-08-24T00:07:36;18;12;11
68713;PMS7003;55690;51.566;19.198;2022-08-24T00:11:42;9;8;7
68713;PMS7003;55690;51.566;19.198;2022-08-24T00:15:48;16;10;6
68713;PMS7003;55690;51.566;19.198;2022-08-24T00:19:54;8;8;7
68713;PMS7003;55690;51.566;19.198;2022-08-24T00:24:00;11;10;9
68713;PMS7003;55690;51.566;19.198;2022-08-24T00:28:07;10;9;8
68713;PMS7003;55690;51.566;19.198;2022-08-24T00:32:13;10;10;7
68713;PMS7003;55690;51.566;19.198;2022-08-24T00:36:19;21;11;8
68713;PMS7003;55690;51.566;19.198;2022-08-24T00:40:27;10;9;7
68713;PMS7003;55690;51.566;19.198;2022-08-24T00:44:34;11;11;11
68713;PMS7003;55690;51.566;19.198;2022-08-24T00:48:39;9;9;6
68713;PMS7003;55690;51.566;19.198;2022-08-24T00:52:45;9;8;7
68713;PMS7003;55690;51.566;19.198;2022-08-24T00:56:52;10;10;10
68713;PMS7003;55690;51.566;19.198;2022-08-24T01:00:59;11;11;9
68713;PMS7003;55690;51.566;19.198;2022-08-24T01:05:04;12;12;11
68713;PMS7003;55690;51.566;19.198;2022-08-24T01:09:08;14;9;7
68713;PMS7003;55690;51.566;19.198;2022-08-24T01:13:14;10;9;6
68713;PMS7003;55690;51.566;19.198;2022-08-24T01:17:20;14;14;11
68713;PMS7003;55690;51.566;19.198;2022-08-24T01:21:40;12;9;6
68713;PMS7003;55690;51.566;19.198;2022-08-24T01:25:49;9;9;9
68713;PMS7003;55690;51.566;19.198;2022-08-24T01:29:51;11;10;8
68713;PMS7003;55690;51.566;19.198;2022-08-24T01:33:54;12;8;8
68713;PMS7003;55690;51.566;19.198;2022-08-24T01:37:57;12;12;10
68713;PMS7003;55690;51.566;19.198;2022-08-24T01:42:02;18;17;12
68713;PMS7003;55690;51.566;19.198;2022-08-24T01:46:04;13;11;8
68713;PMS7003;55690;51.566;19.198;2022-08-24T01:50:10;12;11;9
68713;PMS7003;55690;51.566;19.198;2022-08-24T01:54:16;10;10;8
68713;PMS7003;55690;51.566;19.198;2022-08-24T01:58:22;10;10;8
68713;PMS7003;55690;51.566;19.198;2022-08-24T02:02:29;17;11;9
68713;PMS7003;55690;51.566;19.198;2022-08-24T02:06:35;15;12;11
68713;PMS7003;55690;51.566;19.198;2022-08-24T02:10:41;20;15;11
68713;PMS7003;55690;51.566;19.198;2022-08-24T02:14:47;12;11;7
68713;PMS7003;55690;51.566;19.198;2022-08-24T02:18:53;12;12;10
68713;PMS7003;55690;51.566;19.198;2022-08-24T02:22:59;24;17;12
68713;PMS7003;55690;51.566;19.198;2022-08-24T02:27:05;14;14;11
68713;PMS7003;55690;51.566;19.198;2022-08-24T02:31:12;12;12;11
68713;PMS7003;55690;51.566;19.198;2022-08-24T02:39:24;18;13;11
68713;PMS7003;55690;51.566;19.198;2022-08-24T02:43:30;13;11;9
68713;PMS7003;55690;51.566;19.198;2022-08-24T02:47:36;15;14;10
68713;PMS7003;55690;51.566;19.198;2022-08-24T02:51:43;10;9;6
68713;PMS7003;55690;51.566;19.198;2022-08-24T02:55:49;11;11;8
68713;PMS7003;55690;51.566;19.198;2022-08-24T02:59:54;14;11;9
68713;PMS7003;55690;51.566;19.198;2022-08-24T03:04:01;14;12;9
68713;PMS7003;55690;51.566;19.198;2022-08-24T03:08:07;15;14;9
68713;PMS7003;55690;51.566;19.198;2022-08-24T03:12:13;13;11;9
68713;PMS7003;55690;51.566;19.198;2022-08-24T03:16:19;12;12;9
68713;PMS7003;55690;51.566;19.198;2022-08-24T03:20:26;17;16;11
68713;PMS7003;55690;51.566;19.198;2022-08-24T03:24:32;16;14;11
68713;PMS7003;55690;51.566;19.198;2022-08-24T03:28:38;17;13;10
68713;PMS7003;55690;51.566;19.198;2022-08-24T03:32:44;15;15;11
68713;PMS7003;55690;51.566;19.198;2022-08-24T03:36:50;11;11;9
68713;PMS7003;55690;51.566;19.198;2022-08-24T03:40:56;15;15;13
68713;PMS7003;55690;51.566;19.198;2022-08-24T03:45:03;10;10;7
68713;PMS7003;55690;51.566;19.198;2022-08-24T03:49:08;11;11;9
68713;PMS7003;55690;51.566;19.198;2022-08-24T03:53:15;10;9;5
68713;PMS7003;55690;51.566;19.198;2022-08-24T03:57:21;15;13;11
68713;PMS7003;55690;51.566;19.198;2022-08-24T04:01:27;16;16;13
68713;PMS7003;55690;51.566;19.198;2022-08-24T04:05:33;17;13;8
68713;PMS7003;55690;51.566;19.198;2022-08-24T04:09:39;8;7;5
68713;PMS7003;55690;51.566;19.198;2022-08-24T04:13:45;20;13;10
68713;PMS7003;55690;51.566;19.198;2022-08-24T04:17:51;6;6;4
68713;PMS7003;55690;51.566;19.198;2022-08-24T04:21:58;13;11;6
68713;PMS7003;55690;51.566;19.198;2022-08-24T04:26:04;9;9;6
68713;PMS7003;55690;51.566;19.198;2022-08-24T04:30:10;15;13;12
68713;PMS7003;55690;51.566;19.198;2022-08-24T04:34:16;19;10;8
68713;PMS7003;55690;51.566;19.198;2022-08-24T04:38:22;10;9;7
68713;PMS7003;55690;51.566;19.198;2022-08-24T04:42:29;8;8;7
68713;PMS7003;55690;51.566;19.198;2022-08-24T04:46:35;14;14;11
68713;PMS7003;55690;51.566;19.198;2022-08-24T04:50:41;20;10;9
68713;PMS7003;55690;51.566;19.198;2022-08-24T04:54:47;17;12;9
68713;PMS7003;55690;51.566;19.198;2022-08-24T04:58:53;18;11;9
68713;PMS7003;55690;51.566;19.198;2022-08-24T05:02:59;21;10;7
68713;PMS7003;55690;51.566;19.198;2022-08-24T05:07:06;11;11;8
68713;PMS7003;55690;51.566;19.198;2022-08-24T05:11:12;11;11;9
68713;PMS7003;55690;51.566;19.198;2022-08-24T05:15:18;11;11;8
68713;PMS7003;55690;51.566;19.198;2022-08-24T05:19:27;18;12;10
68713;PMS7003;55690;51.566;19.198;2022-08-24T05:23:30;14;12;9
68713;PMS7003;55690;51.566;19.198;2022-08-24T05:27:36;18;9;6
68713;PMS7003;55690;51.566;19.198;2022-08-24T05:31:43;14;11;8
68713;PMS7003;55690;51.566;19.198;2022-08-24T05:35:49;20;17;10
68713;PMS7003;55690;51.566;19.198;2022-08-24T05:39:55;16;15;11
68713;PMS7003;55690;51.566;19.198;2022-08-24T05:44:01;24;22;16
68713;PMS7003;55690;51.566;19.198;2022-08-24T05:48:07;13;11;8
68713;PMS7003;55690;51.566;19.198;2022-08-24T05:52:13;19;18;12
68713;PMS7003;55690;51.566;19.198;2022-08-24T05:56:23;26;15;11
68713;PMS7003;55690;51.566;19.198;2022-08-24T06:00:26;16;16;12
68713;PMS7003;55690;51.566;19.198;2022-08-24T06:04:32;23;21;16
68713;PMS7003;55690;51.566;19.198;2022-08-24T06:08:39;21;20;13
68713;PMS7003;55690;51.566;19.198;2022-08-24T06:12:44;30;25;15
68713;PMS7003;55690;51.566;19.198;2022-08-24T06:16:50;24;22;16
68713;PMS7003;55690;51.566;19.198;2022-08-24T06:20:56;22;22;17
68713;PMS7003;55690;51.566;19.198;2022-08-24T06:25:03;24;18;12
68713;PMS7003;55690;51.566;19.198;2022-08-24T06:29:17;28;17;13
68713;PMS7003;55690;51.566;19.198;2022-08-24T06:33:19;14;14;11
68713;PMS7003;55690;51.566;19.198;2022-08-24T06:37:21;21;16;12
68713;PMS7003;55690;51.566;19.198;2022-08-24T06:41:28;17;13;11
68713;PMS7003;55690;51.566;19.198;2022-08-24T06:45:33;21;17;13
68713;PMS7003;55690;51.566;19.198;2022-08-24T06:49:40;16;14;11
68713;PMS7003;55690;51.566;19.198;2022-08-24T06:53:46;19;18;14
68713;PMS7003;55690;51.566;19.198;2022-08-24T06:57:52;12;12;9
68713;PMS7003;55690;51.566;19.198;2022-08-24T07:01:58;18;16;12
68713;PMS7003;55690;51.566;19.198;2022-08-24T07:06:08;15;15;11
68713;PMS7003;55690;51.566;19.198;2022-08-24T07:10:13;18;18;12
68713;PMS7003;55690;51.566;19.198;2022-08-24T07:14:17;16;14;10
68713;PMS7003;55690;51.566;19.198;2022-08-24T07:18:23;15;15;11
68713;PMS7003;55690;51.566;19.198;2022-08-24T07:22:29;14;14;10
68713;PMS7003;55690;51.566;19.198;2022-08-24T07:26:39;22;17;12
68713;PMS7003;55690;51.566;19.198;2022-08-24T07:30:43;22;17;13
68713;PMS7003;55690;51.566;19.198;2022-08-24T07:34:49;26;21;14
68713;PMS7003;55690;51.566;19.198;2022-08-24T07:38:55;18;15;11
68713;PMS7003;55690;51.566;19.198;2022-08-24T07:43:01;11;10;9
68713;PMS7003;55690;51.566;19.198;2022-08-24T07:47:07;18;17;13
68713;PMS7003;55690;51.566;19.198;2022-08-24T07:51:14;27;23;17
68713;PMS7003;55690;51.566;19.198;2022-08-24T07:55:19;15;11;9
68713;PMS7003;55690;51.566;19.198;2022-08-24T07:59:26;16;13;11
68713;PMS7003;55690;51.566;19.198;2022-08-24T08:03:32;19;16;13
68713;PMS7003;55690;51.566;19.198;2022-08-24T08:11:44;18;18;12
68713;PMS7003;55690;51.566;19.198;2022-08-24T08:15:50;19;17;14
68713;PMS7003;55690;51.566;19.198;2022-08-24T08:19:56;26;23;17
68713;PMS7003;55690;51.566;19.198;2022-08-24T08:24:03;19;17;14
68713;PMS7003;55690;51.566;19.198;2022-08-24T08:28:16;18;12;8
68713;PMS7003;55690;51.566;19.198;2022-08-24T08:32:18;20;19;15
68713;PMS7003;55690;51.566;19.198;2022-08-24T08:36:21;17;17;13
68713;PMS7003;55690;51.566;19.198;2022-08-24T08:40:40;19;14;12
68713;PMS7003;55690;51.566;19.198;2022-08-24T08:53:15;17;17;12
68713;PMS7003;55690;51.566;19.198;2022-08-24T09:22:45;15;13;11
68713;PMS7003;55690;51.566;19.198;2022-08-24T09:26:53;12;12;9
68713;PMS7003;55690;51.566;19.198;2022-08-24T09:56:53;14;14;12
68713;PMS7003;55690;51.566;19.198;2022-08-24T10:00:47;15;15;10
68713;PMS7003;55690;51.566;19.198;2022-08-24T10:05:02;11;11;10
68713;PMS7003;55690;51.566;19.198;2022-08-24T10:13:29;10;10;9
68713;PMS7003;55690;51.566;19.198;2022-08-24T10:47:35;18;13;11
68713;PMS7003;55690;51.566;19.198;2022-08-24T11:00:13;14;14;11
68713;PMS7003;55690;51.566;19.198;2022-08-24T11:08:29;16;16;13
68713;PMS7003;55690;51.566;19.198;2022-08-24T11:12:36;12;12;10
68713;PMS7003;55690;51.566;19.198;2022-08-24T11:16:45;14;13;12
68713;PMS7003;55690;51.566;19.198;2022-08-24T11:20:49;13;13;10
68713;PMS7003;55690;51.566;19.198;2022-08-24T11:24:53;10;9;8
68713;PMS7003;55690;51.566;19.198;2022-08-24T11:28:59;12;11;10
68713;PMS7003;55690;51.566;19.198;2022-08-24T11:33:05;20;17;14
68713;PMS7003;55690;51.566;19.198;2022-08-24T11:37:21;18;16;14
68713;PMS7003;55690;51.566;19.198;2022-08-24T11:41:25;13;13;9
68713;PMS7003;55690;51.566;19.198;2022-08-24T12:07:10;17;12;11
68713;PMS7003;55690;51.566;19.198;2022-08-24T12:19:48;15;11;11
68713;PMS7003;55690;51.566;19.198;2022-08-24T12:23:58;10;10;10
68713;PMS7003;55690;51.566;19.198;2022-08-24T12:28:20;17;16;12
68713;PMS7003;55690;51.566;19.198;2022-08-24T12:40:30;19;10;8
68713;PMS7003;55690;51.566;19.198;2022-08-24T12:44:46;23;16;15
68713;PMS7003;55690;51.566;19.198;2022-08-24T13:01:34;13;13;12
68713;PMS7003;55690;51.566;19.198;2022-08-24T13:05:43;16;14;12
68713;PMS7003;55690;51.566;19.198;2022-08-24T13:10:01;15;15;13
68713;PMS7003;55690;51.566;19.198;2022-08-24T13:26:38;26;16;13
68713;PMS7003;55690;51.566;19.198;2022-08-24T13:34:53;20;12;11
68713;PMS7003;55690;51.566;19.198;2022-08-24T13:47:44;14;14;11
68713;PMS7003;55690;51.566;19.198;2022-08-24T13:55:50;19;14;12
68713;PMS7003;55690;51.566;19.198;2022-08-24T14:12:40;26;25;19
68713;PMS7003;55690;51.566;19.198;2022-08-24T14:21:20;21;17;14
68713;PMS7003;55690;51.566;19.198;2022-08-24T14:25:29;24;18;14
68713;PMS7003;55690;51.566;19.198;2022-08-24T14:38:06;20;15;11
68713;PMS7003;55690;51.566;19.198;2022-08-24T14:42:16;20;18;14
68713;PMS7003;55690;51.566;19.198;2022-08-24T14:50:39;19;19;12
68713;PMS7003;55690;51.566;19.198;2022-08-24T14:59:26;27;22;16
68713;PMS7003;55690;51.566;19.198;2022-08-24T15:07:34;26;20;16
68713;PMS7003;55690;51.566;19.198;2022-08-24T15:11:37;31;22;16
68713;PMS7003;55690;51.566;19.198;2022-08-24T15:15:42;20;18;14
68713;PMS7003;55690;51.566;19.198;2022-08-24T15:24:10;26;26;18
68713;PMS7003;55690;51.566;19.198;2022-08-24T15:32:39;29;23;17
68713;PMS7003;55690;51.566;19.198;2022-08-24T15:36:39;21;16;14
68713;PMS7003;55690;51.566;19.198;2022-08-24T15:40:40;18;18;12
68713;PMS7003;55690;51.566;19.198;2022-08-24T15:44:43;26;19;14
68713;PMS7003;55690;51.566;19.198;2022-08-24T15:48:48;20;18;15
68713;PMS7003;55690;51.566;19.198;2022-08-24T15:52:55;26;25;17
68713;PMS7003;55690;51.566;19.198;2022-08-24T15:57:06;27;20;15
68713;PMS7003;55690;51.566;19.198;2022-08-24T16:01:20;17;16;13
68713;PMS7003;55690;51.566;19.198;2022-08-24T16:05:36;26;23;18
68713;PMS7003;55690;51.566;19.198;2022-08-24T16:09:38;22;21;16
68713;PMS7003;55690;51.566;19.198;2022-08-24T16:13:43;21;21;18
68713;PMS7003;55690;51.566;19.198;2022-08-24T16:17:48;23;23;16
68713;PMS7003;55690;51.566;19.198;2022-08-24T16:22:13;28;25;18
68713;PMS7003;55690;51.566;19.198;2022-08-24T16:26:16;24;18;15
68713;PMS7003;55690;51.566;19.198;2022-08-24T16:38:33;20;20;16
68713;PMS7003;55690;51.566;19.198;2022-08-24T16:42:38;15;14;13
68713;PMS7003;55690;51.566;19.198;2022-08-24T16:46:40;12;12;11
68713;PMS7003;55690;51.566;19.198;2022-08-24T16:50:42;22;15;12
68713;PMS7003;55690;51.566;19.198;2022-08-24T16:54:44;15;14;12
68713;PMS7003;55690;51.566;19.198;2022-08-24T16:58:47;15;13;11
68713;PMS7003;55690;51.566;19.198;2022-08-24T17:02:49;19;18;13
68713;PMS7003;55690;51.566;19.198;2022-08-24T17:06:51;21;11;9
68713;PMS7003;55690;51.566;19.198;2022-08-24T17:10:55;26;18;12
68713;PMS7003;55690;51.566;19.198;2022-08-24T17:14:57;20;16;13
68713;PMS7003;55690;51.566;19.198;2022-08-24T17:18:59;24;21;15
68713;PMS7003;55690;51.566;19.198;2022-08-24T17:23:04;16;15;12
68713;PMS7003;55690;51.566;19.198;2022-08-24T17:27:08;24;15;12
68713;PMS7003;55690;51.566;19.198;2022-08-24T17:31:09;21;17;14
68713;PMS7003;55690;51.566;19.198;2022-08-24T17:35:11;15;12;11
68713;PMS7003;55690;51.566;19.198;2022-08-24T17:39:17;15;15;12
68713;PMS7003;55690;51.566;19.198;2022-08-24T17:43:19;13;13;10
68713;PMS7003;55690;51.566;19.198;2022-08-24T17:47:21;15;13;10
68713;PMS7003;55690;51.566;19.198;2022-08-24T17:51:23;17;15;11
68713;PMS7003;55690;51.566;19.198;2022-08-24T17:55:25;13;13;12
68713;PMS7003;55690;51.566;19.198;2022-08-24T17:59:29;28;17;14
68713;PMS7003;55690;51.566;19.198;2022-08-24T18:03:34;19;16;14
68713;PMS7003;55690;51.566;19.198;2022-08-24T18:07:36;15;15;13
68713;PMS7003;55690;51.566;19.198;2022-08-24T18:11:43;20;19;16
68713;PMS7003;55690;51.566;19.198;2022-08-24T18:15:45;16;16;12
68713;PMS7003;55690;51.566;19.198;2022-08-24T18:19:48;21;16;13
68713;PMS7003;55690;51.566;19.198;2022-08-24T18:23:53;23;15;12
68713;PMS7003;55690;51.566;19.198;2022-08-24T18:27:55;24;16;13
68713;PMS7003;55690;51.566;19.198;2022-08-24T18:31:59;17;14;13
68713;PMS7003;55690;51.566;19.198;2022-08-24T18:36:00;16;15;13
68713;PMS7003;55690;51.566;19.198;2022-08-24T18:40:03;18;17;15
68713;PMS7003;55690;51.566;19.198;2022-08-24T18:44:06;17;11;10
68713;PMS7003;55690;51.566;19.198;2022-08-24T18:48:11;7;5;4
68713;PMS7003;55690;51.566;19.198;2022-08-24T18:52:13;7;7;6
68713;PMS7003;55690;51.566;19.198;2022-08-24T18:56:18;4;4;4
68713;PMS7003;55690;51.566;19.198;2022-08-24T19:00:20;7;6;5
68713;PMS7003;55690;51.566;19.198;2022-08-24T19:04:22;3;3;2
68713;PMS7003;55690;51.566;19.198;2022-08-24T19:08:23;8;4;3
68713;PMS7003;55690;51.566;19.198;2022-08-24T19:12:25;2;2;2
68713;PMS7003;55690;51.566;19.198;2022-08-24T19:16:31;0;0;0
68713;PMS7003;55690;51.566;19.198;2022-08-24T19:20:33;1;1;1
68713;PMS7003;55690;51.566;19.198;2022-08-24T19:24:35;9;1;1
68713;PMS7003;55690;51.566;19.198;2022-08-24T19:28:39;3;2;2
68713;PMS7003;55690;51.566;19.198;2022-08-24T19:32:41;3;3;3
68713;PMS7003;55690;51.566;19.198;2022-08-24T19:36:45;2;2;1
68713;PMS7003;55690;51.566;19.198;2022-08-24T19:41:00;3;2;2
68713;PMS7003;55690;51.566;19.198;2022-08-24T19:45:05;4;3;2
68713;PMS7003;55690;51.566;19.198;2022-08-24T19:49:19;2;1;1
68713;PMS7003;55690;51.566;19.198;2022-08-24T19:53:21;1;1;1
68713;PMS7003;55690;51.566;19.198;2022-08-24T20:01:39;2;2;1
68713;PMS7003;55690;51.566;19.198;2022-08-24T20:05:41;2;2;1
68713;PMS7003;55690;51.566;19.198;2022-08-24T20:09:43;0;0;0
68713;PMS7003;55690;51.566;19.198;2022-08-24T20:13:46;4;2;2
68713;PMS7003;55690;51.566;19.198;2022-08-24T20:17:48;2;2;2
68713;PMS7003;55690;51.566;19.198;2022-08-24T20:21:50;2;1;1
68713;PMS7003;55690;51.566;19.198;2022-08-24T20:25:53;3;3;3
68713;PMS7003;55690;51.566;19.198;2022-08-24T20:29:56;1;1;1
68713;PMS7003;55690;51.566;19.198;2022-08-24T20:33:58;6;3;3
68713;PMS7003;55690;51.566;19.198;2022-08-24T20:38:00;3;3;3
68713;PMS7003;55690;51.566;19.198;2022-08-24T20:42:03;2;2;2
68713;PMS7003;55690;51.566;19.198;2022-08-24T20:46:05;6;2;2
68713;PMS7003;55690;51.566;19.198;2022-08-24T20:50:07;4;2;1
68713;PMS7003;55690;51.566;19.198;2022-08-24T20:54:10;2;2;2
68713;PMS7003;55690;51.566;19.198;2022-08-24T20:58:11;4;4;4
68713;PMS7003;55690;51.566;19.198;2022-08-24T21:02:17;3;3;3
68713;PMS7003;55690;51.566;19.198;2022-08-24T21:06:19;1;1;1
68713;PMS7003;55690;51.566;19.198;2022-08-24T21:10:21;2;2;1
68713;PMS7003;55690;51.566;19.198;2022-08-24T21:14:25;0;0;0
68713;PMS7003;55690;51.566;19.198;2022-08-24T21:19:23;0;0;0
68713;PMS7003;55690;51.566;19.198;2022-08-24T21:23:24;13;1;1
68713;PMS7003;55690;51.566;19.198;2022-08-24T21:27:26;2;2;2
68713;PMS7003;55690;51.566;19.198;2022-08-24T21:31:28;1;1;1
68713;PMS7003;55690;51.566;19.198;2022-08-24T21:35:30;10;3;3
68713;PMS7003;55690;51.566;19.198;2022-08-24T21:39:32;2;2;2
68713;PMS7003;55690;51.566;19.198;2022-08-24T21:43:34;2;2;1
68713;PMS7003;55690;51.566;19.198;2022-08-24T21:47:35;8;3;3
68713;PMS7003;55690;51.566;19.198;2022-08-24T21:51:37;1;1;1
68713;PMS7003;55690;51.566;19.198;2022-08-24T21:55:39;3;3;3
68713;PMS7003;55690;51.566;19.198;2022-08-24T21:59:42;1;1;1
68713;PMS7003;55690;51.566;19.198;2022-08-24T22:03:44;2;2;2
68713;PMS7003;55690;51.566;19.198;2022-08-24T22:07:45;4;1;1
68713;PMS7003;55690;51.566;19.198;2022-08-24T22:11:48;4;4;3
68713;PMS7003;55690;51.566;19.198;2022-08-24T22:15:51;4;4;4
68713;PMS7003;55690;51.566;19.198;2022-08-24T22:19:53;4;3;3
68713;PMS7003;55690;51.566;19.198;2022-08-24T22:23:55;5;5;4
68713;PMS7003;55690;51.566;19.198;2022-08-24T22:27:58;3;2;2
68713;PMS7003;55690;51.566;19.198;2022-08-24T22:31:59;6;6;5
68713;PMS7003;55690;51.566;19.198;2022-08-24T22:36:01;7;4;4
68713;PMS7003;55690;51.566;19.198;2022-08-24T22:40:03;4;4;3
68713;PMS7003;55690;51.566;19.198;2022-08-24T22:44:06;5;3;2
68713;PMS7003;55690;51.566;19.198;2022-08-24T22:48:20;6;3;2
68713;PMS7003;55690;51.566;19.198;2022-08-24T22:52:22;2;2;2
68713;PMS7003;55690;51.566;19.198;2022-08-24T22:56:30;5;4;4
68713;PMS7003;55690;51.566;19.198;2022-08-24T23:00:33;4;4;3
68713;PMS7003;55690;51.566;19.198;2022-08-24T23:04:40;7;5;4
68713;PMS7003;55690;51.566;19.198;2022-08-24T23:08:44;7;5;4
68713;PMS7003;55690;51.566;19.198;2022-08-24T23:12:45;3;3;3
68713;PMS7003;55690;51.566;19.198;2022-08-24T23:16:47;7;4;4
68713;PMS7003;55690;51.566;19.198;2022-08-24T23:20:50;1;1;1
68713;PMS7003;55690;51.566;19.198;2022-08-24T23:24:52;2;2;2
68713;PMS7003;55690;51.566;19.198;2022-08-24T23:28:54;6;5;5
68713;PMS7003;55690;51.566;19.198;2022-08-24T23:32:55;11;7;6
68713;PMS7003;55690;51.566;19.198;2022-08-24T23:36:57;5;5;4
68713;PMS7003;55690;51.566;19.198;2022-08-24T23:40:58;5;5;4
68713;PMS7003;55690;51.566;19.198;2022-08-24T23:45:01;9;4;3
68713;PMS7003;55690;51.566;19.198;2022-08-24T23:49:03;10;6;5
68713;PMS7003;55690;51.566;19.198;2022-08-24T23:53:05;6;6;4
68713;PMS7003;55690;51.566;19.198;2022-08-24T23:57:07;2;2;2
